createdAt,value
2022-12-08T00:01:23.421Z,24.10
2022-12-08T00:03:52.068Z,24.95
2022-12-08T00:06:44.428Z,24.23
2022-12-08T00:09:23.203Z,22.95
2022-12-08T00:11:56.996Z,24.90
2022-12-08T00:14:27.519Z,21.80
2022-12-08T00:16:55.929Z,20.40
2022-12-08T00:19:24.805Z,21.50
2022-12-08T00:21:55.150Z,22.77
2022-12-08T00:24:24.759Z,24.70
2022-12-08T00:26:52.789Z,18.88
2022-12-08T00:29:20.885Z,19.67
2022-12-08T00:31:48.729Z,20.10
2022-12-08T00:34:17.267Z,22.20
2022-12-08T00:36:45.437Z,19.83
2022-12-08T00:39:16.236Z,20.20
2022-12-08T00:42:01.950Z,21.35
2022-12-08T00:44:29.705Z,18.20
2022-12-08T00:46:57.518Z,24.77
2022-12-08T00:49:25.508Z,17.65
2022-12-08T00:51:53.347Z,20.95
2022-12-08T00:54:23.923Z,17.77
2022-12-08T00:56:51.789Z,20.25
2022-12-08T00:59:19.854Z,25.83
2022-12-08T01:01:48.803Z,14.80
2022-12-08T01:04:19.144Z,16.77
2022-12-08T01:06:47.263Z,13.63
2022-12-08T01:09:16.271Z,15.80
2022-12-08T01:11:46.046Z,21.88
2022-12-08T01:14:14.603Z,19.67
2022-12-08T01:16:42.799Z,15.23
2022-12-08T01:19:12.009Z,19.95
2022-12-08T01:21:39.975Z,20.15
2022-12-08T01:24:08.591Z,12.55
2022-12-08T01:26:36.350Z,18.30
2022-12-08T01:29:05.467Z,16.95
2022-12-08T01:31:33.267Z,17.17
2022-12-08T01:34:00.998Z,15.90
2022-12-08T01:36:30.880Z,14.98
2022-12-08T01:39:02.771Z,13.95
2022-12-08T01:41:32.466Z,12.30
2022-12-08T01:44:01.821Z,16.08
2022-12-08T01:49:04.529Z,16.48
2022-12-08T01:51:35.748Z,12.63
2022-12-08T01:54:06.650Z,15.80
2022-12-08T01:56:40.320Z,15.80
2022-12-08T01:59:11.419Z,13.38
2022-12-08T02:04:08.411Z,15.40
2022-12-08T02:06:39.780Z,14.40
2022-12-08T02:09:08.732Z,15.80
2022-12-08T02:11:36.562Z,15.88
2022-12-08T02:14:08.425Z,19.23
2022-12-08T02:16:44.007Z,19.08
2022-12-08T02:19:46.707Z,20.45
2022-12-08T02:22:19.850Z,17.88
2022-12-08T02:24:53.659Z,22.15
2022-12-08T02:27:33.818Z,21.98
2022-12-08T02:30:22.073Z,18.13
2022-12-08T02:33:34.663Z,19.25
2022-12-08T02:36:07.982Z,19.08
2022-12-08T02:38:48.626Z,18.92
2022-12-08T02:41:27.190Z,18.85
2022-12-08T02:43:59.632Z,21.45
2022-12-08T02:46:32.854Z,20.55
2022-12-08T02:49:01.451Z,21.33
2022-12-08T02:51:30.536Z,22.57
2022-12-08T02:53:58.650Z,20.02
2022-12-08T02:56:47.172Z,21.85
2022-12-08T02:59:26.494Z,22.48
2022-12-08T03:04:43.020Z,20.50
2022-12-08T03:07:16.040Z,27.20
2022-12-08T03:09:49.698Z,26.45
2022-12-08T03:12:21.708Z,26.25
2022-12-08T03:14:54.594Z,27.35
2022-12-08T03:17:27.048Z,30.67
2022-12-08T03:19:55.917Z,28.00
2022-12-08T03:22:28.502Z,29.50
2022-12-08T03:24:57.708Z,42.38
2022-12-08T03:27:28.656Z,33.08
2022-12-08T03:29:58.633Z,30.73
2022-12-08T03:32:31.634Z,44.33
2022-12-08T03:35:02.207Z,30.42
2022-12-08T03:37:31.407Z,32.85
2022-12-08T03:39:59.294Z,34.72
2022-12-08T03:42:27.085Z,30.42
2022-12-08T03:44:54.848Z,36.53
2022-12-08T03:47:22.608Z,30.77
2022-12-08T03:49:50.436Z,28.90
2022-12-08T03:52:18.186Z,30.35
2022-12-08T03:54:47.291Z,34.15
2022-12-08T03:57:15.220Z,30.20
2022-12-08T03:59:42.958Z,28.52
2022-12-08T04:02:10.765Z,28.35
2022-12-08T04:04:38.521Z,31.73
2022-12-08T04:07:06.242Z,25.15
2022-12-08T04:09:33.991Z,26.60
2022-12-08T04:12:03.065Z,35.00
2022-12-08T04:14:30.799Z,26.70
2022-12-08T04:16:58.621Z,29.30
2022-12-08T04:19:26.433Z,26.92
2022-12-08T04:21:54.353Z,31.30
2022-12-08T04:24:22.112Z,29.25
2022-12-08T04:26:50.656Z,26.25
2022-12-08T04:29:19.868Z,28.30
2022-12-08T04:31:47.619Z,28.55
2022-12-08T04:34:15.416Z,28.98
2022-12-08T04:36:43.230Z,27.38
2022-12-08T04:39:10.993Z,34.15
2022-12-08T04:41:38.733Z,25.45
2022-12-08T04:44:06.484Z,30.85
2022-12-08T04:46:40.201Z,31.73
2022-12-08T04:49:10.843Z,32.30
2022-12-08T04:51:38.685Z,28.70
2022-12-08T04:54:06.655Z,24.70
2022-12-08T04:56:34.398Z,26.50
2022-12-08T04:59:02.139Z,27.52
2022-12-08T05:01:30.013Z,29.55
2022-12-08T05:03:59.158Z,27.75
2022-12-08T05:06:26.903Z,30.15
2022-12-08T05:08:54.611Z,29.33
2022-12-08T05:11:22.376Z,28.45
2022-12-08T05:13:50.127Z,28.23
2022-12-08T05:16:17.905Z,36.70
2022-12-08T05:18:45.867Z,28.40
2022-12-08T05:21:14.968Z,24.73
2022-12-08T05:23:42.764Z,31.02
2022-12-08T05:26:10.612Z,30.13
2022-12-08T05:28:43.049Z,29.48
2022-12-08T05:31:11.982Z,33.00
2022-12-08T05:33:39.829Z,30.83
2022-12-08T05:36:08.162Z,31.50
2022-12-08T05:38:37.255Z,29.85
2022-12-08T05:41:05.106Z,31.75
2022-12-08T05:43:32.833Z,26.85
2022-12-08T05:46:00.652Z,25.83
2022-12-08T05:48:28.963Z,25.77
2022-12-08T05:50:56.980Z,31.65
2022-12-08T05:53:24.720Z,29.58
2022-12-08T05:55:54.336Z,28.77
2022-12-08T05:58:23.934Z,28.90
2022-12-08T06:00:52.154Z,29.45
2022-12-08T06:03:20.540Z,25.33
2022-12-08T06:05:49.028Z,26.50
2022-12-08T06:08:17.162Z,33.40
2022-12-08T06:10:45.887Z,31.90
2022-12-08T06:13:15.123Z,32.90
2022-12-08T06:15:43.239Z,24.75
2022-12-08T06:18:11.724Z,25.63
2022-12-08T06:20:39.448Z,23.60
2022-12-08T06:23:07.450Z,24.60
2022-12-08T06:25:35.268Z,25.48
2022-12-08T06:28:02.994Z,27.30
2022-12-08T06:30:32.137Z,25.45
2022-12-08T06:33:00.093Z,27.33
2022-12-08T06:35:27.871Z,24.25
2022-12-08T06:37:55.663Z,27.65
2022-12-08T06:40:23.398Z,30.17
2022-12-08T06:42:51.107Z,25.58
2022-12-08T06:45:19.478Z,24.48
2022-12-08T06:47:48.600Z,25.35
2022-12-08T06:50:16.543Z,21.73
2022-12-08T06:52:57.043Z,19.73
2022-12-08T06:55:58.717Z,24.10
2022-12-08T06:58:16.597Z,23.80
2022-12-08T07:00:44.764Z,22.90
2022-12-08T07:03:14.699Z,26.52
2022-12-08T07:05:42.502Z,25.08
2022-12-08T07:08:10.743Z,21.77
2022-12-08T07:10:38.860Z,26.70
2022-12-08T07:13:06.724Z,21.95
2022-12-08T07:15:34.498Z,18.02
2022-12-08T07:18:02.293Z,24.05
2022-12-08T07:20:31.490Z,21.05
2022-12-08T07:22:59.373Z,21.33
2022-12-08T07:25:27.539Z,25.55
2022-12-08T07:27:55.336Z,26.83
2022-12-08T07:30:23.091Z,22.08
2022-12-08T07:32:50.857Z,23.90
2022-12-08T07:35:24.962Z,17.88
2022-12-08T07:37:54.082Z,18.98
2022-12-08T07:40:21.856Z,20.15
2022-12-08T07:42:49.599Z,24.73
2022-12-08T07:45:17.443Z,20.02
2022-12-08T07:47:45.142Z,20.85
2022-12-08T07:50:12.890Z,22.73
2022-12-08T07:52:40.658Z,20.63
2022-12-08T07:55:12.465Z,21.52
2022-12-08T07:57:40.212Z,30.77
2022-12-08T08:00:09.238Z,21.83
2022-12-08T08:02:40.728Z,26.40
2022-12-08T08:05:09.810Z,25.13
2022-12-08T08:07:37.975Z,21.63
2022-12-08T08:10:07.280Z,24.10
2022-12-08T08:12:36.858Z,20.80
2022-12-08T08:17:33.097Z,17.70
2022-12-08T08:20:02.172Z,20.20
2022-12-08T08:22:30.229Z,17.67
2022-12-08T08:24:58.016Z,23.05
2022-12-08T08:27:26.850Z,23.65
2022-12-08T08:29:55.943Z,23.05
2022-12-08T08:32:23.724Z,21.88
2022-12-08T08:34:52.406Z,24.30
2022-12-08T08:37:20.348Z,16.30
2022-12-08T08:39:48.224Z,22.65
2022-12-08T08:42:15.985Z,19.80
2022-12-08T08:44:43.775Z,20.65
2022-12-08T08:47:12.956Z,22.80
2022-12-08T08:49:40.946Z,16.17
2022-12-08T08:52:08.772Z,17.90
2022-12-08T08:54:36.585Z,21.95
2022-12-08T08:57:04.594Z,25.05
2022-12-08T08:59:32.540Z,30.85
2022-12-08T09:02:00.443Z,27.65
2022-12-08T09:04:29.744Z,28.27
2022-12-08T09:06:57.792Z,20.13
2022-12-08T09:09:25.514Z,19.95
2022-12-08T09:11:53.307Z,24.40
2022-12-08T09:14:21.104Z,21.05
2022-12-08T09:16:48.955Z,19.50
2022-12-08T09:19:16.826Z,24.00
2022-12-08T09:21:46.025Z,19.88
2022-12-08T09:24:15.874Z,23.52
2022-12-08T09:26:44.659Z,18.30
2022-12-08T09:29:13.701Z,19.73
2022-12-08T09:31:42.030Z,20.38
2022-12-08T09:34:13.853Z,20.70
2022-12-08T09:36:42.019Z,22.05
2022-12-08T09:39:11.186Z,21.20
2022-12-08T09:41:48.526Z,21.98
2022-12-08T09:44:44.100Z,20.00
2022-12-08T09:47:19.687Z,24.10
2022-12-08T09:49:53.992Z,23.35
2022-12-08T09:52:26.362Z,21.02
2022-12-08T09:54:59.950Z,15.45
2022-12-08T09:57:27.955Z,18.85
2022-12-08T09:59:59.376Z,14.80
2022-12-08T10:02:30.177Z,28.00
2022-12-08T10:04:59.476Z,19.13
2022-12-08T10:10:07.003Z,29.05
2022-12-08T10:12:41.463Z,35.05
2022-12-08T10:15:27.486Z,28.10
2022-12-08T10:17:55.963Z,50.40
2022-12-08T10:20:25.861Z,28.57
2022-12-08T10:23:04.244Z,22.77
2022-12-08T10:25:38.056Z,18.33
2022-12-08T10:28:06.102Z,17.98
2022-12-08T10:30:33.901Z,23.90
2022-12-08T10:33:01.708Z,20.83
2022-12-08T10:35:45.803Z,20.50
2022-12-08T10:38:23.294Z,17.13
2022-12-08T10:40:54.249Z,23.40
2022-12-08T10:43:25.017Z,17.40
2022-12-08T10:45:53.442Z,23.58
2022-12-08T10:48:23.491Z,18.73
2022-12-08T10:50:55.845Z,21.17
2022-12-08T10:53:25.408Z,13.82
2022-12-08T10:56:07.702Z,20.17
2022-12-08T10:58:40.338Z,20.48
2022-12-08T11:01:13.111Z,18.92
2022-12-08T11:03:46.944Z,20.80
2022-12-08T11:06:18.616Z,15.95
2022-12-08T11:08:50.351Z,19.67
2022-12-08T11:11:24.445Z,18.60
2022-12-08T11:13:57.330Z,14.77
2022-12-08T11:16:25.259Z,15.25
2022-12-08T11:18:58.441Z,16.02
2022-12-08T11:21:36.743Z,20.25
2022-12-08T11:24:23.767Z,14.95
2022-12-08T11:26:56.162Z,15.60
2022-12-08T11:29:24.255Z,16.55
2022-12-08T11:31:57.560Z,15.35
2022-12-08T11:34:33.105Z,13.98
2022-12-08T11:37:01.051Z,18.90
2022-12-08T11:39:35.280Z,12.63
2022-12-08T11:42:06.847Z,19.65
2022-12-08T11:44:39.861Z,15.23
2022-12-08T11:47:16.116Z,15.38
2022-12-08T11:52:25.174Z,20.70
2022-12-08T11:54:58.633Z,16.02
2022-12-08T11:57:30.609Z,14.55
2022-12-08T11:59:59.608Z,17.05
2022-12-08T12:02:29.941Z,15.02
2022-12-08T12:05:02.119Z,18.88
2022-12-08T12:07:56.095Z,17.35
2022-12-08T12:10:39.969Z,19.02
2022-12-08T12:13:34.462Z,13.90
2022-12-08T12:16:22.473Z,16.35
2022-12-08T12:18:53.723Z,16.95
2022-12-08T12:21:27.148Z,14.65
2022-12-08T12:23:57.481Z,18.05
2022-12-08T12:26:27.821Z,13.13
2022-12-08T12:29:01.786Z,18.50
2022-12-08T12:31:31.882Z,14.95
2022-12-08T12:34:08.425Z,13.32
2022-12-08T12:36:48.680Z,48.80
2022-12-08T12:39:19.299Z,19.92
2022-12-08T12:41:52.360Z,21.92
2022-12-08T12:44:38.378Z,25.27
2022-12-08T12:47:11.190Z,20.95
2022-12-08T12:50:14.424Z,24.55
2022-12-08T12:52:48.989Z,20.13
2022-12-08T12:55:51.979Z,15.98
2022-12-08T12:58:36.364Z,19.35
2022-12-08T13:01:45.822Z,35.45
2022-12-08T13:04:13.713Z,19.45
2022-12-08T13:06:44.911Z,17.30
2022-12-08T13:09:24.881Z,15.68
2022-12-08T13:11:56.681Z,13.93
2022-12-08T13:14:31.121Z,11.35
2022-12-08T13:17:02.269Z,14.05
2022-12-08T13:19:34.500Z,15.52
2022-12-08T13:22:02.692Z,18.85
2022-12-08T13:24:34.807Z,19.13
2022-12-08T13:27:35.984Z,19.67
2022-12-08T13:30:41.095Z,16.20
2022-12-08T13:33:18.400Z,15.60
2022-12-08T13:35:56.213Z,13.40
2022-12-08T13:38:29.108Z,14.40
2022-12-08T13:40:57.834Z,14.63
2022-12-08T13:43:51.007Z,9.63
2022-12-08T13:51:23.564Z,23.83
2022-12-08T13:58:06.339Z,18.92
2022-12-08T14:00:34.273Z,9.57
2022-12-08T14:03:03.116Z,12.13
2022-12-08T14:06:10.916Z,19.42
2022-12-08T14:08:58.390Z,13.70
2022-12-08T14:11:34.414Z,18.75
2022-12-08T14:14:04.161Z,12.63
2022-12-08T14:16:37.455Z,9.60
2022-12-08T14:19:06.963Z,9.50
2022-12-08T14:21:36.526Z,11.30
2022-12-08T14:24:04.521Z,12.65
2022-12-08T14:26:35.376Z,11.43
2022-12-08T14:29:03.421Z,8.70
2022-12-08T14:31:31.317Z,11.70
2022-12-08T14:33:59.487Z,12.10
2022-12-08T14:36:29.006Z,11.88
2022-12-08T14:38:58.283Z,25.13
2022-12-08T14:41:28.116Z,38.88
2022-12-08T14:44:02.916Z,246.75
2022-12-08T14:46:30.829Z,166.02
2022-12-08T14:48:59.696Z,86.15
2022-12-08T14:51:32.085Z,123.35
2022-12-08T14:54:03.495Z,149.57
2022-12-08T14:56:37.729Z,50.65
2022-12-08T14:59:14.264Z,16.10
2022-12-08T15:01:43.149Z,13.63
2022-12-08T15:04:18.836Z,13.18
2022-12-08T15:06:52.432Z,11.43
2022-12-08T15:09:31.562Z,12.18
2022-12-08T15:12:03.711Z,12.43
2022-12-08T15:14:33.464Z,12.43
2022-12-08T15:17:01.972Z,11.00
2022-12-08T15:19:31.660Z,10.67
2022-12-08T15:22:08.907Z,11.27
2022-12-08T15:24:38.030Z,13.55
2022-12-08T15:27:05.781Z,11.93
2022-12-08T15:29:33.590Z,10.52
2022-12-08T15:32:02.986Z,20.98
2022-12-08T15:36:59.534Z,10.10
2022-12-08T15:39:33.461Z,9.73
2022-12-08T15:42:04.038Z,9.90
2022-12-08T15:44:32.915Z,9.02
2022-12-08T15:47:01.696Z,7.93
2022-12-08T15:49:29.610Z,9.80
2022-12-08T15:52:09.253Z,19.38
2022-12-08T15:54:38.769Z,9.23
2022-12-08T15:57:23.933Z,7.95
2022-12-08T16:00:05.187Z,9.68
2022-12-08T16:02:49.477Z,10.98
2022-12-08T16:08:23.416Z,7.38
2022-12-08T16:11:56.615Z,11.25
2022-12-08T16:14:36.853Z,12.05
2022-12-08T16:16:53.442Z,12.98
2022-12-08T16:19:21.298Z,9.30
2022-12-08T16:22:30.376Z,5.55
2022-12-08T16:24:36.903Z,12.80
2022-12-08T16:29:53.990Z,9.35
2022-12-08T16:32:22.058Z,13.13
2022-12-08T16:34:50.434Z,9.93
2022-12-08T16:37:19.068Z,11.60
2022-12-08T16:39:47.057Z,11.90
2022-12-08T16:42:33.903Z,7.75
2022-12-08T16:45:05.660Z,13.55
2022-12-08T16:47:33.751Z,9.52
2022-12-08T16:50:01.576Z,12.32
2022-12-08T16:52:29.368Z,10.45
2022-12-08T16:54:57.177Z,11.60
2022-12-08T16:57:24.972Z,12.77
2022-12-08T16:59:52.783Z,16.13
2022-12-08T17:02:21.911Z,12.85
2022-12-08T17:04:49.951Z,15.30
2022-12-08T17:07:17.846Z,17.02
2022-12-08T17:09:45.607Z,10.90
2022-12-08T17:12:13.465Z,11.18
2022-12-08T17:14:41.255Z,15.82
2022-12-08T17:17:09.163Z,15.32
2022-12-08T17:19:38.640Z,23.08
2022-12-08T17:22:06.529Z,17.67
2022-12-08T17:24:34.307Z,13.27
2022-12-08T17:27:04.191Z,15.45
2022-12-08T17:29:32.311Z,16.52
2022-12-08T17:32:00.396Z,19.48
2022-12-08T17:34:28.265Z,16.75
2022-12-08T17:36:57.524Z,17.50
2022-12-08T17:39:25.425Z,13.98
2022-12-08T17:41:53.185Z,17.08
2022-12-08T17:44:21.299Z,15.02
2022-12-08T17:46:53.022Z,15.68
2022-12-08T17:49:24.444Z,17.60
2022-12-08T17:51:54.972Z,16.92
2022-12-08T17:54:24.240Z,12.25
2022-12-08T17:56:52.432Z,19.80
2022-12-08T17:59:20.261Z,17.25
2022-12-08T18:01:48.161Z,13.23
2022-12-08T18:04:16.087Z,15.63
2022-12-08T18:06:43.859Z,15.77
2022-12-08T18:09:11.695Z,13.82
2022-12-08T18:11:41.044Z,15.82
2022-12-08T18:19:07.273Z,12.10
2022-12-08T18:21:35.203Z,19.17
2022-12-08T18:24:03.302Z,16.27
2022-12-08T18:26:31.690Z,14.18
2022-12-08T18:29:01.247Z,16.10
2022-12-08T18:31:29.157Z,12.40
2022-12-08T18:33:57.094Z,16.48
2022-12-08T18:36:26.436Z,15.82
2022-12-08T18:41:25.809Z,18.77
2022-12-08T18:43:54.144Z,15.88
2022-12-08T18:46:23.581Z,18.98
2022-12-08T18:48:52.746Z,12.68
2022-12-08T18:51:23.183Z,16.50
2022-12-08T18:53:51.844Z,23.80
2022-12-08T18:56:23.000Z,14.30
2022-12-08T18:58:50.838Z,15.52
2022-12-08T19:01:19.011Z,18.67
2022-12-08T19:04:05.157Z,24.10
2022-12-08T19:06:38.235Z,23.13
2022-12-08T19:09:06.096Z,27.20
2022-12-08T19:11:33.892Z,15.95
2022-12-08T19:14:01.733Z,13.18
2022-12-08T19:16:29.667Z,15.40
2022-12-08T19:18:58.821Z,13.05
2022-12-08T19:21:26.630Z,14.25
2022-12-08T19:23:55.923Z,13.55
2022-12-08T19:28:51.412Z,43.45
2022-12-08T19:31:19.247Z,16.55
2022-12-08T19:33:47.162Z,11.90
2022-12-08T19:36:20.094Z,13.88
2022-12-08T19:39:06.125Z,18.15
2022-12-08T19:41:51.578Z,15.05
2022-12-08T19:44:39.185Z,15.35
2022-12-08T19:47:07.174Z,14.40
2022-12-08T19:49:35.038Z,12.95
2022-12-08T19:52:04.520Z,18.15
2022-12-08T19:54:32.408Z,14.32
2022-12-08T19:57:00.233Z,14.43
2022-12-08T19:59:29.999Z,11.23
2022-12-08T20:01:58.663Z,16.67
2022-12-08T20:04:28.332Z,10.80
2022-12-08T20:06:57.491Z,12.20
2022-12-08T20:09:26.675Z,12.70
2022-12-08T20:11:55.004Z,13.50
2022-12-08T20:14:25.931Z,13.88
2022-12-08T20:16:53.799Z,15.32
2022-12-08T20:19:21.661Z,16.48
2022-12-08T20:21:49.876Z,13.35
2022-12-08T20:24:17.786Z,16.83
2022-12-08T20:26:46.972Z,13.88
2022-12-08T20:29:16.961Z,17.83
2022-12-08T20:31:44.894Z,16.17
2022-12-08T20:34:15.184Z,21.75
2022-12-08T20:36:43.155Z,18.63
2022-12-08T20:39:13.593Z,17.58
2022-12-08T20:41:41.521Z,19.70
2022-12-08T20:44:11.297Z,19.58
2022-12-08T20:46:39.357Z,20.50
2022-12-08T20:49:07.226Z,18.55
2022-12-08T20:51:35.533Z,18.55
2022-12-08T20:54:04.473Z,17.98
2022-12-08T20:56:32.854Z,18.02
2022-12-08T20:59:00.735Z,21.00
2022-12-08T21:01:30.158Z,14.80
2022-12-08T21:03:58.285Z,24.23
2022-12-08T21:06:27.861Z,20.75
2022-12-08T21:08:55.903Z,21.70
2022-12-08T21:11:23.918Z,17.70
2022-12-08T21:13:51.829Z,19.00
2022-12-08T21:16:19.946Z,17.02
2022-12-08T21:18:49.213Z,17.38
2022-12-08T21:21:17.887Z,19.08
2022-12-08T21:23:45.976Z,17.73
2022-12-08T21:26:16.239Z,20.55
2022-12-08T21:28:44.746Z,23.80
2022-12-08T21:31:15.074Z,19.15
2022-12-08T21:33:43.140Z,19.52
2022-12-08T21:36:16.158Z,19.67
2022-12-08T21:38:44.735Z,21.27
2022-12-08T21:41:15.209Z,24.17
2022-12-08T21:43:43.779Z,19.48
2022-12-08T21:46:16.536Z,23.60
2022-12-08T21:48:44.634Z,21.38
2022-12-08T21:51:13.950Z,21.73
2022-12-08T21:56:09.941Z,26.58
2022-12-08T21:58:40.285Z,21.67
2022-12-08T22:01:09.415Z,27.05
2022-12-08T22:03:37.808Z,23.83
2022-12-08T22:06:06.761Z,26.38
2022-12-08T22:08:36.613Z,22.73
2022-12-08T22:11:05.258Z,21.45
2022-12-08T22:13:35.422Z,23.20
2022-12-08T22:16:05.939Z,25.77
2022-12-08T22:18:35.566Z,23.85
2022-12-08T22:21:04.003Z,24.63
2022-12-08T22:23:31.908Z,25.50
2022-12-08T22:26:02.520Z,25.42
2022-12-08T22:28:33.125Z,25.90
2022-12-08T22:31:01.088Z,28.08
2022-12-08T22:33:30.321Z,27.95
2022-12-08T22:38:27.074Z,29.83
2022-12-08T22:40:55.344Z,26.88
2022-12-08T22:43:24.642Z,29.00
2022-12-08T22:48:20.376Z,24.15
2022-12-08T22:50:48.202Z,29.17
2022-12-08T22:53:16.004Z,28.92
2022-12-08T22:55:44.744Z,31.65
2022-12-08T22:58:13.079Z,27.08
2022-12-08T23:00:42.211Z,26.30
2022-12-08T23:03:10.046Z,22.52
2022-12-08T23:05:39.960Z,21.70
2022-12-08T23:08:10.155Z,29.08
2022-12-08T23:10:37.962Z,25.13
2022-12-08T23:13:05.873Z,25.27
2022-12-08T23:15:35.014Z,28.35
2022-12-08T23:18:04.311Z,28.70
2022-12-08T23:22:59.821Z,30.55
2022-12-08T23:25:27.667Z,25.98
2022-12-08T23:27:55.555Z,25.30
2022-12-08T23:30:25.609Z,23.02
2022-12-08T23:32:55.750Z,24.42
2022-12-08T23:35:25.089Z,23.38
2022-12-08T23:37:53.765Z,28.58
2022-12-08T23:40:21.546Z,26.65
2022-12-08T23:42:49.307Z,25.20
2022-12-08T23:45:17.181Z,25.42
2022-12-08T23:47:45.072Z,25.40
2022-12-08T23:50:13.223Z,30.73
2022-12-08T23:52:42.581Z,25.33
2022-12-08T23:57:39.445Z,23.30
